createdAt,value
2023-08-16T00:01:29.158Z,9.50
2023-08-16T00:03:56.019Z,13.63
2023-08-16T00:06:22.933Z,9.02
2023-08-16T00:08:49.750Z,7.90
2023-08-16T00:11:16.432Z,10.57
2023-08-16T00:13:43.146Z,9.52
2023-08-16T00:16:09.859Z,8.15
2023-08-16T00:18:36.641Z,7.55
2023-08-16T00:21:03.411Z,11.23
2023-08-16T00:23:30.110Z,10.07
2023-08-16T00:25:57.891Z,7.80
2023-08-16T00:28:24.820Z,7.82
2023-08-16T00:30:57.767Z,8.40
2023-08-16T00:33:24.907Z,8.25
2023-08-16T00:35:53.704Z,9.40
2023-08-16T00:38:20.786Z,7.57
2023-08-16T00:40:51.650Z,9.30
2023-08-16T00:43:19.245Z,12.35
2023-08-16T00:45:49.869Z,9.00
2023-08-16T00:48:17.932Z,8.48
2023-08-16T00:50:47.767Z,7.97
2023-08-16T00:53:18.387Z,12.13
2023-08-16T00:55:45.481Z,9.25
2023-08-16T00:58:12.454Z,11.80
2023-08-16T01:00:39.589Z,9.10
2023-08-16T01:03:06.407Z,10.10
2023-08-16T01:05:33.813Z,11.18
2023-08-16T01:08:02.744Z,8.40
2023-08-16T01:11:05.160Z,8.95
2023-08-16T01:13:46.031Z,8.18
2023-08-16T01:16:13.043Z,13.07
2023-08-16T01:18:43.249Z,10.75
2023-08-16T01:21:13.114Z,8.68
2023-08-16T01:24:32.248Z,9.10
2023-08-16T01:26:59.279Z,9.10
2023-08-16T01:29:27.600Z,8.98
2023-08-16T01:31:54.623Z,8.30
2023-08-16T01:34:21.350Z,9.02
2023-08-16T01:36:49.155Z,11.00
2023-08-16T01:39:15.879Z,9.45
2023-08-16T01:41:46.745Z,10.43
2023-08-16T01:44:14.340Z,9.85
2023-08-16T01:46:42.873Z,9.17
2023-08-16T01:49:11.662Z,11.05
2023-08-16T01:51:39.271Z,12.63
2023-08-16T01:54:06.435Z,9.82
2023-08-16T01:56:33.426Z,11.13
2023-08-16T01:59:00.124Z,11.27
2023-08-16T02:01:26.873Z,10.75
2023-08-16T02:03:54.880Z,13.00
2023-08-16T02:06:22.663Z,11.30
2023-08-16T02:08:49.472Z,12.07
2023-08-16T02:11:16.208Z,15.07
2023-08-16T02:13:42.930Z,12.23
2023-08-16T02:16:09.626Z,11.75
2023-08-16T02:18:36.552Z,12.88
2023-08-16T02:21:03.545Z,12.07
2023-08-16T02:23:30.444Z,11.52
2023-08-16T02:25:57.171Z,13.90
2023-08-16T02:28:23.909Z,14.88
2023-08-16T02:30:50.568Z,14.02
2023-08-16T02:33:17.342Z,13.52
2023-08-16T02:35:44.108Z,12.50
2023-08-16T02:38:10.828Z,13.85
2023-08-16T02:40:38.062Z,14.97
2023-08-16T02:43:04.965Z,15.18
2023-08-16T02:45:31.694Z,13.23
2023-08-16T02:47:59.414Z,15.33
2023-08-16T02:50:26.253Z,18.87
2023-08-16T02:52:52.979Z,16.02
2023-08-16T02:55:19.660Z,17.87
2023-08-16T02:57:46.341Z,18.57
2023-08-16T03:00:14.258Z,17.43
2023-08-16T03:02:41.024Z,18.77
2023-08-16T03:05:08.039Z,20.80
2023-08-16T03:07:34.723Z,19.43
2023-08-16T03:10:01.417Z,17.43
2023-08-16T03:12:28.221Z,16.95
2023-08-16T03:14:54.972Z,16.20
2023-08-16T03:17:22.712Z,18.83
2023-08-16T03:19:49.593Z,19.40
2023-08-16T03:22:16.274Z,17.23
2023-08-16T03:24:42.972Z,16.45
2023-08-16T03:27:10.134Z,16.77
2023-08-16T03:29:36.952Z,15.02
2023-08-16T03:32:03.956Z,15.98
2023-08-16T03:34:31.604Z,14.57
2023-08-16T03:36:58.599Z,24.47
2023-08-16T03:39:25.435Z,18.13
2023-08-16T03:41:52.151Z,17.77
2023-08-16T03:44:18.834Z,14.52
2023-08-16T03:46:45.538Z,16.93
2023-08-16T03:49:12.368Z,15.02
2023-08-16T03:51:39.695Z,16.13
2023-08-16T03:54:06.439Z,15.07
2023-08-16T03:56:33.158Z,17.70
2023-08-16T03:58:59.979Z,17.65
2023-08-16T04:01:26.710Z,16.15
2023-08-16T04:03:53.531Z,17.20
2023-08-16T04:06:21.951Z,17.10
2023-08-16T04:08:48.797Z,15.57
2023-08-16T04:11:16.046Z,13.52
2023-08-16T04:13:42.852Z,16.20
2023-08-16T04:16:09.607Z,15.05
2023-08-16T04:18:36.465Z,14.55
2023-08-16T04:21:03.201Z,12.95
2023-08-16T04:23:30.008Z,11.63
2023-08-16T04:25:56.685Z,10.57
2023-08-16T04:28:23.374Z,11.32
2023-08-16T04:30:50.088Z,8.68
2023-08-16T04:33:17.693Z,9.40
2023-08-16T04:35:44.386Z,9.70
2023-08-16T04:38:11.159Z,10.65
2023-08-16T04:40:37.882Z,10.68
2023-08-16T04:43:04.582Z,13.02
2023-08-16T04:45:31.261Z,12.68
2023-08-16T04:47:58.028Z,8.88
2023-08-16T04:50:24.763Z,11.32
2023-08-16T04:55:41.651Z,11.90
2023-08-16T04:58:08.775Z,13.35
2023-08-16T05:00:36.065Z,14.23
2023-08-16T05:03:03.207Z,12.77
2023-08-16T05:05:30.478Z,14.10
2023-08-16T05:07:57.614Z,14.05
2023-08-16T05:10:24.842Z,15.80
2023-08-16T05:12:51.579Z,16.30
2023-08-16T05:15:18.334Z,22.50
2023-08-16T05:17:45.466Z,19.50
2023-08-16T05:20:12.570Z,22.25
2023-08-16T05:22:39.273Z,17.67
2023-08-16T05:25:06.942Z,16.45
2023-08-16T05:27:34.060Z,16.05
2023-08-16T05:30:00.902Z,16.60
2023-08-16T05:32:28.074Z,16.38
2023-08-16T05:34:54.904Z,13.57
2023-08-16T05:37:22.682Z,14.00
2023-08-16T05:39:50.271Z,17.27
2023-08-16T05:42:17.447Z,19.02
2023-08-16T05:44:44.310Z,15.48
2023-08-16T05:47:11.047Z,17.40
2023-08-16T05:49:38.205Z,13.30
2023-08-16T05:52:05.123Z,16.30
2023-08-16T05:54:32.273Z,15.10
2023-08-16T05:56:59.426Z,15.73
2023-08-16T05:59:26.615Z,22.05
2023-08-16T06:01:54.000Z,19.15
2023-08-16T06:04:20.698Z,22.27
2023-08-16T06:06:47.969Z,25.20
2023-08-16T06:09:15.178Z,19.77
2023-08-16T06:11:42.331Z,22.25
2023-08-16T06:14:09.055Z,23.02
2023-08-16T06:16:36.345Z,18.52
2023-08-16T06:19:03.140Z,17.80
2023-08-16T06:21:29.812Z,16.25
2023-08-16T06:23:57.372Z,17.48
2023-08-16T06:26:24.699Z,20.30
2023-08-16T06:28:52.667Z,18.33
2023-08-16T06:31:19.940Z,16.90
2023-08-16T06:33:47.129Z,14.60
2023-08-16T06:36:14.213Z,13.80
2023-08-16T06:38:41.338Z,16.33
2023-08-16T06:41:08.117Z,16.02
2023-08-16T06:43:35.310Z,19.65
2023-08-16T06:46:02.461Z,14.60
2023-08-16T06:48:29.751Z,15.88
2023-08-16T06:50:56.872Z,14.13
2023-08-16T06:53:23.701Z,17.85
2023-08-16T06:55:50.420Z,14.85
2023-08-16T06:58:17.974Z,11.65
2023-08-16T07:00:46.627Z,13.25
2023-08-16T07:03:13.983Z,11.57
2023-08-16T07:05:40.982Z,11.30
2023-08-16T07:08:08.121Z,9.85
2023-08-16T07:10:35.188Z,12.10
2023-08-16T07:13:03.827Z,12.45
2023-08-16T07:15:31.029Z,12.35
2023-08-16T07:17:57.930Z,8.93
2023-08-16T07:20:24.739Z,12.10
2023-08-16T07:22:51.437Z,11.38
2023-08-16T07:25:18.246Z,15.43
2023-08-16T07:27:45.085Z,13.38
2023-08-16T07:30:13.485Z,12.13
2023-08-16T07:32:40.688Z,12.32
2023-08-16T07:35:08.371Z,12.57
2023-08-16T07:37:35.693Z,11.88
2023-08-16T07:40:04.047Z,11.00
2023-08-16T07:42:30.739Z,9.32
2023-08-16T07:44:59.735Z,10.52
2023-08-16T07:47:26.679Z,8.38
2023-08-16T07:49:53.426Z,7.72
2023-08-16T07:52:20.134Z,7.82
2023-08-16T07:54:47.570Z,7.45
2023-08-16T07:57:14.699Z,6.88
2023-08-16T07:59:41.725Z,6.55
2023-08-16T08:02:08.983Z,5.32
2023-08-16T08:04:37.288Z,5.78
2023-08-16T08:07:04.809Z,6.05
2023-08-16T08:09:32.635Z,8.50
2023-08-16T08:12:01.227Z,7.47
2023-08-16T08:14:28.004Z,7.03
2023-08-16T08:16:56.109Z,8.25
2023-08-16T08:19:22.891Z,5.85
2023-08-16T08:21:49.993Z,5.20
2023-08-16T08:24:17.158Z,6.43
2023-08-16T08:26:47.994Z,5.70
2023-08-16T08:29:14.847Z,5.75
2023-08-16T08:31:42.080Z,5.45
2023-08-16T08:34:09.602Z,7.65
2023-08-16T08:36:36.451Z,4.97
2023-08-16T08:39:03.490Z,5.93
2023-08-16T08:41:47.285Z,5.25
2023-08-16T08:44:18.706Z,5.35
2023-08-16T08:46:47.796Z,5.43
2023-08-16T08:49:21.712Z,5.05
2023-08-16T08:51:48.692Z,4.38
2023-08-16T08:54:15.405Z,4.90
2023-08-16T08:56:43.259Z,4.50
2023-08-16T08:59:15.361Z,4.68
2023-08-16T09:01:43.942Z,4.82
2023-08-16T09:04:12.239Z,6.55
2023-08-16T09:06:39.298Z,4.93
2023-08-16T09:09:08.396Z,7.80
2023-08-16T09:11:35.155Z,7.97
2023-08-16T09:14:05.072Z,8.13
2023-08-16T09:16:32.178Z,9.27
2023-08-16T09:18:58.981Z,14.27
2023-08-16T09:21:30.295Z,9.60
2023-08-16T09:23:59.036Z,11.43
2023-08-16T09:26:28.438Z,10.02
2023-08-16T09:29:04.017Z,15.80
2023-08-16T09:31:38.496Z,11.40
2023-08-16T09:34:06.463Z,11.73
2023-08-16T09:36:36.241Z,10.48
2023-08-16T09:39:10.007Z,12.07
2023-08-16T09:41:40.693Z,9.52
2023-08-16T09:44:09.269Z,10.43
2023-08-16T09:46:36.713Z,12.25
2023-08-16T09:54:34.419Z,9.05
2023-08-16T10:09:34.757Z,8.52
2023-08-16T10:12:05.731Z,10.00
2023-08-16T10:14:33.100Z,11.00
2023-08-16T10:17:03.194Z,9.70
2023-08-16T10:19:35.087Z,9.27
2023-08-16T10:22:03.278Z,10.23
2023-08-16T10:27:17.728Z,7.65
2023-08-16T10:29:47.835Z,8.02
2023-08-16T10:32:17.474Z,7.50
2023-08-16T10:34:45.111Z,7.47
2023-08-16T10:37:13.106Z,8.18
2023-08-16T10:39:39.788Z,7.45
2023-08-16T10:42:07.314Z,7.53
2023-08-16T10:44:34.628Z,10.20
2023-08-16T10:47:01.535Z,11.07
2023-08-16T10:49:41.404Z,10.20
2023-08-16T10:52:08.236Z,12.48
2023-08-16T10:54:36.245Z,10.13
2023-08-16T10:57:08.074Z,11.05
2023-08-16T10:59:42.689Z,11.70
2023-08-16T11:02:17.324Z,12.27
2023-08-16T11:04:44.751Z,16.02
2023-08-16T11:07:15.809Z,11.85
2023-08-16T11:09:43.268Z,14.07
2023-08-16T11:12:10.070Z,14.77
2023-08-16T11:14:37.480Z,15.20
2023-08-16T11:17:04.750Z,14.55
2023-08-16T11:19:32.184Z,14.00
2023-08-16T11:22:02.633Z,13.40
2023-08-16T11:24:30.442Z,14.75
2023-08-16T11:26:57.368Z,16.50
2023-08-16T11:29:24.466Z,16.70
2023-08-16T11:31:57.426Z,17.63
2023-08-16T11:34:24.800Z,13.88
2023-08-16T11:36:51.561Z,14.55
2023-08-16T11:39:18.365Z,13.15
2023-08-16T11:41:45.253Z,15.55
2023-08-16T11:44:12.378Z,16.77
2023-08-16T11:46:48.719Z,19.35
2023-08-16T11:49:19.673Z,17.17
2023-08-16T11:51:46.512Z,20.52
2023-08-16T11:54:23.717Z,17.25
2023-08-16T11:56:51.370Z,16.15
2023-08-16T11:59:27.052Z,15.77
2023-08-16T12:01:56.443Z,20.38
2023-08-16T12:04:25.214Z,18.00
2023-08-16T12:06:52.413Z,20.73
2023-08-16T12:09:19.860Z,18.13
2023-08-16T12:11:51.702Z,17.70
2023-08-16T12:14:18.570Z,20.77
2023-08-16T12:16:45.287Z,13.80
2023-08-16T12:19:19.630Z,19.70
2023-08-16T12:21:46.867Z,15.18
2023-08-16T12:24:16.241Z,16.48
2023-08-16T12:26:43.134Z,16.27
2023-08-16T12:29:10.348Z,15.45
2023-08-16T12:31:37.237Z,17.85
2023-08-16T12:34:05.162Z,16.88
2023-08-16T12:36:32.064Z,17.25
2023-08-16T12:38:58.782Z,14.15
2023-08-16T12:41:25.504Z,13.43
2023-08-16T12:43:52.818Z,12.82
2023-08-16T12:46:19.767Z,13.40
2023-08-16T12:48:47.418Z,16.52
2023-08-16T12:51:17.678Z,15.98
2023-08-16T12:53:45.651Z,15.93
2023-08-16T12:56:13.485Z,14.60
2023-08-16T12:58:56.030Z,15.60
2023-08-16T13:01:23.753Z,13.93
2023-08-16T13:06:31.052Z,16.48
2023-08-16T13:11:33.921Z,16.98
2023-08-16T13:14:02.256Z,15.75
2023-08-16T13:16:31.130Z,12.25
2023-08-16T13:19:04.080Z,11.60
2023-08-16T13:24:37.604Z,13.07
2023-08-16T13:27:03.334Z,13.60
2023-08-16T13:29:52.855Z,10.82
2023-08-16T13:40:02.306Z,13.77
2023-08-16T13:47:30.237Z,15.02
2023-08-16T13:49:56.965Z,12.73
2023-08-16T13:52:24.158Z,12.38
2023-08-16T13:54:51.149Z,15.00
2023-08-16T13:57:17.873Z,13.57
2023-08-16T13:59:45.349Z,15.68
2023-08-16T14:02:12.247Z,14.27
2023-08-16T14:04:39.080Z,12.27
2023-08-16T14:07:05.845Z,12.38
2023-08-16T14:09:32.696Z,11.70
2023-08-16T14:11:59.762Z,10.70
2023-08-16T14:14:26.486Z,13.07
2023-08-16T14:16:53.398Z,10.40
2023-08-16T14:19:20.338Z,11.07
2023-08-16T14:21:48.396Z,12.52
2023-08-16T14:24:17.891Z,13.43
2023-08-16T14:26:44.722Z,11.60
2023-08-16T14:29:12.412Z,10.38
2023-08-16T14:31:40.066Z,12.60
2023-08-16T14:34:06.826Z,12.90
2023-08-16T14:36:33.524Z,15.68
2023-08-16T14:39:00.992Z,15.48
2023-08-16T14:41:28.298Z,10.15
2023-08-16T14:43:55.065Z,12.30
2023-08-16T14:46:23.328Z,11.88
2023-08-16T14:48:51.119Z,11.98
2023-08-16T14:51:17.935Z,10.82
2023-08-16T14:53:44.787Z,11.98
2023-08-16T14:56:12.836Z,11.88
2023-08-16T14:58:41.277Z,17.30
2023-08-16T15:01:08.316Z,12.45
2023-08-16T15:03:35.655Z,10.82
2023-08-16T15:06:02.677Z,12.98
2023-08-16T15:08:29.495Z,13.70
2023-08-16T15:11:01.673Z,13.45
2023-08-16T15:13:28.992Z,11.85
2023-08-16T15:15:57.449Z,12.57
2023-08-16T15:18:24.313Z,14.45
2023-08-16T15:20:51.696Z,16.05
2023-08-16T15:23:24.228Z,13.45
2023-08-16T15:25:51.147Z,14.00
2023-08-16T15:28:18.204Z,12.05
2023-08-16T15:30:44.963Z,11.43
2023-08-16T15:33:11.705Z,11.88
2023-08-16T15:35:38.564Z,11.50
2023-08-16T15:38:07.497Z,12.85
2023-08-16T15:40:36.888Z,10.93
2023-08-16T15:43:03.841Z,14.32
2023-08-16T15:45:30.652Z,9.77
2023-08-16T15:47:57.488Z,10.93
2023-08-16T15:50:24.223Z,12.80
2023-08-16T15:52:51.016Z,12.45
2023-08-16T15:55:17.851Z,16.05
2023-08-16T15:57:44.550Z,10.75
2023-08-16T16:00:13.051Z,9.90
2023-08-16T16:02:39.856Z,10.10
2023-08-16T16:05:06.751Z,11.20
2023-08-16T16:07:33.459Z,10.25
2023-08-16T16:10:00.173Z,10.50
2023-08-16T16:12:26.911Z,12.00
2023-08-16T16:14:53.580Z,9.10
2023-08-16T16:17:26.188Z,13.02
2023-08-16T16:19:53.553Z,8.60
2023-08-16T16:22:20.548Z,8.48
2023-08-16T16:24:47.729Z,9.43
2023-08-16T16:27:14.778Z,7.78
2023-08-16T16:29:41.585Z,8.48
2023-08-16T16:32:09.430Z,8.40
2023-08-16T16:34:36.318Z,7.97
2023-08-16T16:37:03.115Z,9.30
2023-08-16T16:39:29.990Z,12.18
2023-08-16T16:41:57.989Z,8.82
2023-08-16T16:44:26.633Z,8.25
2023-08-16T16:46:53.388Z,7.95
2023-08-16T16:49:20.218Z,10.45
2023-08-16T16:51:47.021Z,9.60
2023-08-16T16:54:13.800Z,8.93
2023-08-16T16:56:40.553Z,10.40
2023-08-16T16:59:07.261Z,10.32
2023-08-16T17:01:35.685Z,10.65
2023-08-16T17:04:02.716Z,13.02
2023-08-16T17:06:29.512Z,10.23
2023-08-16T17:08:59.492Z,10.30
2023-08-16T17:11:26.274Z,8.85
2023-08-16T17:13:53.736Z,8.45
2023-08-16T17:16:21.474Z,9.88
2023-08-16T17:18:48.680Z,9.45
2023-08-16T17:21:18.951Z,9.50
2023-08-16T17:23:46.825Z,7.22
2023-08-16T17:26:14.576Z,10.90
2023-08-16T17:28:41.601Z,10.93
2023-08-16T17:31:09.920Z,9.60
2023-08-16T17:33:36.921Z,9.38
2023-08-16T17:36:07.013Z,6.32
2023-08-16T17:38:33.761Z,8.25
2023-08-16T17:41:00.974Z,7.95
2023-08-16T17:43:28.196Z,7.25
2023-08-16T17:45:55.317Z,7.60
2023-08-16T17:48:22.468Z,7.30
2023-08-16T17:50:49.249Z,8.38
2023-08-16T17:53:16.416Z,9.07
2023-08-16T17:55:43.582Z,8.55
2023-08-16T17:58:10.249Z,11.40
2023-08-16T18:00:37.974Z,8.75
2023-08-16T18:03:05.684Z,9.98
2023-08-16T18:05:32.410Z,7.88
2023-08-16T18:07:59.744Z,7.57
2023-08-16T18:10:26.847Z,7.38
2023-08-16T18:12:53.563Z,6.55
2023-08-16T18:15:20.457Z,6.03
2023-08-16T18:17:47.230Z,7.15
2023-08-16T18:20:14.366Z,8.55
2023-08-16T18:22:41.145Z,6.35
2023-08-16T18:25:08.213Z,5.93
2023-08-16T18:27:35.178Z,9.05
2023-08-16T18:30:01.900Z,7.65
2023-08-16T18:32:28.657Z,9.07
2023-08-16T18:34:56.082Z,7.30
2023-08-16T18:37:23.620Z,9.27
2023-08-16T18:39:50.463Z,5.90
2023-08-16T18:42:17.231Z,8.20
2023-08-16T18:44:44.309Z,7.35
2023-08-16T18:47:10.985Z,6.25
2023-08-16T18:49:37.806Z,7.88
2023-08-16T18:52:04.853Z,8.23
2023-08-16T18:54:31.592Z,6.82
2023-08-16T18:56:58.991Z,6.00
2023-08-16T18:59:30.920Z,7.45
2023-08-16T19:01:57.745Z,6.88
2023-08-16T19:04:24.979Z,5.90
2023-08-16T19:06:51.752Z,6.78
2023-08-16T19:09:18.528Z,6.25
2023-08-16T19:11:45.236Z,5.75
2023-08-16T19:14:11.910Z,8.88
2023-08-16T19:16:39.404Z,6.47
2023-08-16T19:19:06.120Z,6.78
2023-08-16T19:21:36.181Z,9.15
2023-08-16T19:24:03.382Z,6.95
2023-08-16T19:26:30.064Z,7.72
2023-08-16T19:28:57.294Z,6.53
2023-08-16T19:31:24.070Z,11.93
2023-08-16T19:33:52.123Z,11.65
2023-08-16T19:36:19.353Z,9.25
2023-08-16T19:38:46.085Z,10.27
2023-08-16T19:41:13.990Z,8.07
2023-08-16T19:43:41.127Z,7.80
2023-08-16T19:46:07.878Z,8.38
2023-08-16T19:48:35.041Z,8.13
2023-08-16T19:51:02.192Z,8.98
2023-08-16T19:53:30.647Z,8.73
2023-08-16T19:55:57.876Z,7.38
2023-08-16T19:58:25.218Z,8.18
2023-08-16T20:00:52.338Z,12.15
2023-08-16T20:03:19.096Z,11.55
2023-08-16T20:05:46.419Z,8.30
2023-08-16T20:08:13.130Z,12.27
2023-08-16T20:10:41.280Z,8.80
2023-08-16T20:13:08.387Z,6.88
2023-08-16T20:15:35.347Z,9.27
2023-08-16T20:18:02.119Z,9.73
2023-08-16T20:20:28.830Z,8.18
2023-08-16T20:22:55.517Z,8.27
2023-08-16T20:25:22.646Z,9.32
2023-08-16T20:27:49.325Z,8.40
2023-08-16T20:30:16.015Z,9.23
2023-08-16T20:32:42.810Z,11.32
2023-08-16T20:35:09.624Z,7.47
2023-08-16T20:37:36.816Z,9.48
2023-08-16T20:40:05.909Z,7.57
2023-08-16T20:42:37.320Z,8.65
2023-08-16T20:45:06.619Z,10.55
2023-08-16T20:47:33.405Z,11.68
2023-08-16T20:50:00.350Z,11.48
2023-08-16T20:52:27.454Z,11.00
2023-08-16T20:54:56.680Z,8.32
2023-08-16T20:57:24.164Z,9.07
2023-08-16T20:59:51.552Z,8.35
2023-08-16T21:02:20.505Z,8.15
2023-08-16T21:04:47.384Z,8.98
2023-08-16T21:07:14.302Z,8.68
2023-08-16T21:09:41.596Z,6.20
2023-08-16T21:12:08.324Z,8.00
2023-08-16T21:14:35.046Z,7.38
2023-08-16T21:17:02.151Z,6.72
2023-08-16T21:19:28.898Z,10.95
2023-08-16T21:21:56.072Z,8.60
2023-08-16T21:24:22.800Z,8.80
2023-08-16T21:26:51.426Z,9.40
2023-08-16T21:29:18.608Z,7.13
2023-08-16T21:31:45.334Z,6.57
2023-08-16T21:34:12.080Z,8.32
2023-08-16T21:36:39.416Z,9.82
2023-08-16T21:39:09.190Z,8.02
2023-08-16T21:41:36.448Z,8.57
2023-08-16T21:44:03.871Z,8.00
2023-08-16T21:46:30.957Z,11.35
2023-08-16T21:48:58.114Z,7.55
2023-08-16T21:51:26.822Z,11.45
2023-08-16T21:53:53.581Z,9.05
2023-08-16T21:56:20.681Z,8.85
2023-08-16T21:58:47.521Z,9.38
2023-08-16T22:01:14.328Z,11.90
2023-08-16T22:03:41.502Z,9.55
2023-08-16T22:06:08.735Z,9.35
2023-08-16T22:08:35.444Z,10.52
2023-08-16T22:11:02.689Z,8.02
2023-08-16T22:13:29.514Z,11.77
2023-08-16T22:15:56.368Z,9.02
2023-08-16T22:18:23.584Z,7.07
2023-08-16T22:21:01.498Z,7.85
2023-08-16T22:23:29.647Z,9.18
2023-08-16T22:25:57.567Z,9.02
2023-08-16T22:28:24.306Z,11.95
2023-08-16T22:30:51.481Z,12.75
2023-08-16T22:33:18.311Z,11.80
2023-08-16T22:35:45.553Z,10.73
2023-08-16T22:38:14.843Z,11.50
2023-08-16T22:40:42.098Z,9.18
2023-08-16T22:43:08.850Z,8.75
2023-08-16T22:45:35.578Z,9.20
2023-08-16T22:48:02.326Z,12.80
2023-08-16T22:50:31.307Z,9.73
2023-08-16T22:52:58.552Z,8.02
2023-08-16T22:55:31.275Z,10.48
2023-08-16T22:57:58.410Z,10.50
2023-08-16T23:00:25.672Z,8.68
2023-08-16T23:02:52.835Z,10.00
2023-08-16T23:05:19.537Z,10.65
2023-08-16T23:07:46.252Z,9.57
2023-08-16T23:10:12.990Z,8.93
2023-08-16T23:12:40.090Z,8.73
2023-08-16T23:15:07.491Z,7.68
2023-08-16T23:17:34.200Z,10.60
2023-08-16T23:20:00.926Z,10.25
2023-08-16T23:22:27.727Z,10.35
2023-08-16T23:24:54.879Z,10.32
2023-08-16T23:27:21.630Z,8.90
2023-08-16T23:29:48.319Z,8.38
2023-08-16T23:32:15.046Z,9.98
2023-08-16T23:34:42.189Z,9.57
2023-08-16T23:37:08.939Z,9.32
2023-08-16T23:39:35.711Z,8.65
2023-08-16T23:42:02.881Z,13.68
2023-08-16T23:44:32.840Z,9.05
2023-08-16T23:47:00.275Z,11.40
2023-08-16T23:49:27.117Z,10.63
2023-08-16T23:51:54.242Z,12.32
2023-08-16T23:54:20.969Z,7.45
2023-08-16T23:56:47.859Z,11.40
2023-08-16T23:59:15.049Z,8.00
